Time;durP1;ratioP1;P1;durP2;ratioP2;P2;SDS_P1;SDS_P2;PMS_P1;PMS_P2;Temp;Humidity;BMP_temperature;BMP_pressure;BME280_temperature;BME280_humidity;BME280_pressure;Samples;Min_cycle;Max_cycle;Signal;HPM_P1;HPM_P2
2022/06/10 10:08:17;;;;;;;6.72;1.80;;;22.50;92.30;;;;;;5010552;22;20081;-88
2022/06/10 10:13:21;;;;;;;6.20;1.55;;;22.50;90.70;;;;;;5013566;28;20050;-85
2022/06/10 10:16:13;;;;;;;5.70;1.58;;;22.70;90.40;;;;;;5014524;28;20026;-84
2022/06/10 10:18:54;;;;;;;5.97;1.52;;;22.90;89.80;;;;;;5014561;28;20029;-85
2022/06/10 10:21:41;;;;;;;8.55;1.90;;;23.10;90.50;;;;;;5018588;28;20081;-84
2022/06/10 10:24:19;;;;;;;7.70;1.77;;;23.40;89.20;;;;;;5014156;28;20397;-83
2022/06/10 10:26:46;;;;;;;7.82;1.75;;;23.60;89.70;;;;;;5019700;28;20056;-84
2022/06/10 10:29:25;;;;;;;6.65;2.05;;;23.90;89.40;;;;;;5020226;28;20042;-84
2022/06/10 10:32:12;;;;;;;7.63;1.98;;;23.90;88.60;;;;;;5010864;28;20026;-82
2022/06/10 10:34:43;;;;;;;5.82;1.65;;;24.10;87.80;;;;;;5019437;28;20046;-82
2022/06/10 10:37:49;;;;;;;7.25;1.58;;;24.40;88.00;;;;;;5014805;28;20025;-82
2022/06/10 10:40:23;;;;;;;9.02;1.92;;;24.60;85.30;;;;;;5012898;28;20026;-82
2022/06/10 10:42:52;;;;;;;4.57;1.35;;;24.70;84.70;;;;;;5014529;28;20113;-82
2022/06/10 10:45:45;;;;;;;4.47;1.58;;;24.20;82.30;;;;;;5018353;28;20478;-83
2022/06/10 10:48:18;;;;;;;8.90;1.75;;;23.90;83.20;;;;;;5018037;28;20053;-83
2022/06/10 10:50:54;;;;;;;7.43;1.88;;;23.80;84.60;;;;;;5015627;28;20441;-83
2022/06/10 10:53:45;;;;;;;5.93;1.65;;;23.80;83.10;;;;;;5013330;28;20105;-84
2022/06/10 10:56:13;;;;;;;7.30;1.70;;;23.90;82.60;;;;;;5017128;28;20013;-83
2022/06/10 10:58:51;;;;;;;6.40;1.60;;;24.20;81.80;;;;;;5019670;28;20086;-84
2022/06/10 11:01:44;;;;;;;8.75;1.80;;;24.60;80.70;;;;;;5014510;28;20026;-83
2022/06/10 11:04:26;;;;;;;8.32;1.60;;;24.90;79.70;;;;;;5019820;28;20018;-82
2022/06/10 11:07:10;;;;;;;4.68;1.30;;;25.10;78.90;;;;;;5013239;28;20470;-82
2022/06/10 11:10:17;;;;;;;3.70;1.27;;;25.20;76.40;;;;;;5014708;28;20072;-80
2022/06/10 11:12:44;;;;;;;4.50;1.25;;;25.40;77.60;;;;;;5017595;28;20030;-83
2022/06/10 11:15:28;;;;;;;5.75;1.60;;;25.10;77.00;;;;;;5012789;28;20394;-83
2022/06/10 11:17:55;;;;;;;4.15;1.20;;;24.60;77.30;;;;;;5009538;28;20018;-82
2022/06/10 11:20:28;;;;;;;8.52;2.13;;;24.40;78.90;;;;;;5006719;28;20117;-83
2022/06/10 11:23:29;;;;;;;5.20;1.60;;;24.50;79.00;;;;;;5011367;28;20030;-83
2022/06/10 11:26:20;;;;;;;4.85;1.60;;;24.90;77.00;;;;;;4980970;28;20038;-81
2022/06/10 11:28:47;;;;;;;5.72;1.30;;;24.80;74.20;;;;;;5014538;28;20121;-83
2022/06/10 11:31:28;;;;;;;7.85;1.48;;;24.60;75.60;;;;;;5003912;28;20030;-84
2022/06/10 11:33:57;;;;;;;4.60;1.25;;;24.50;75.50;;;;;;5013260;28;20033;-81
2022/06/10 11:36:35;;;;;;;5.32;1.50;;;24.20;76.20;;;;;;5013641;28;20022;-82
2022/06/10 11:39:16;;;;;;;5.38;1.73;;;24.00;76.80;;;;;;5014687;28;20026;-83
2022/06/10 11:41:57;;;;;;;5.53;1.60;;;23.70;78.00;;;;;;5018985;28;20022;-84
2022/06/10 11:44:25;;;;;;;6.28;1.48;;;23.70;77.80;;;;;;5015529;28;20033;-81
2022/06/10 11:47:03;;;;;;;4.95;1.45;;;24.00;76.20;;;;;;5013184;28;20060;-82
2022/06/10 11:50:26;;;;;;;6.57;1.63;;;24.30;73.60;;;;;;4990263;28;20080;-83
2022/06/10 11:53:42;;;;;;;7.40;1.60;;;24.70;72.80;;;;;;4974470;28;20116;-85
2022/06/10 12:02:22;;;;;;;7.53;1.67;;;25.20;71.50;;;;;;5018545;28;20079;-84
2022/06/10 12:05:37;;;;;;;5.55;1.42;;;25.10;71.90;;;;;;5017823;28;20057;-84
2022/06/10 12:12:06;;;;;;;5.15;1.40;;;24.20;73.10;;;;;;4996678;28;20045;-81
2022/06/10 12:14:54;;;;;;;8.73;1.88;;;25.40;74.40;;;;;;5018337;28;20022;-82
2022/06/10 12:17:44;;;;;;;7.10;1.98;;;23.80;73.70;;;;;;5018836;28;20034;-85
2022/06/10 12:20:33;;;;;;;;;;;24.70;73.90;;;;;;5022564;28;20044;-84
2022/06/10 12:23:25;;;;;;;7.07;2.10;;;24.90;74.80;;;;;;5024958;28;19925;-84
2022/06/10 12:26:07;;;;;;;6.80;1.58;;;25.40;73.10;;;;;;5032166;28;20006;-82
2022/06/10 12:29:06;;;;;;;6.00;1.80;;;25.70;71.90;;;;;;5031896;28;20025;-83
2022/06/10 12:31:51;;;;;;;6.20;1.70;;;25.70;71.80;;;;;;5028391;28;20093;-84
2022/06/10 12:34:49;;;;;;;4.72;1.42;;;25.70;71.30;;;;;;5022692;28;20030;-83
2022/06/10 12:37:34;;;;;;;7.38;1.60;;;25.50;70.50;;;;;;5054497;22;20105;-89
2022/06/10 12:40:30;;;;;;;;;;;;;;;;;;;;;
2022/06/10 12:43:04;;;;;;;3.97;1.70;;;25.80;71.10;;;;;;5014065;28;20122;-90
2022/06/10 12:45:54;;;;;;;;;;;;;;;;;;;;;
2022/06/10 12:48:30;;;;;;;6.20;1.50;;;25.70;69.20;;;;;;5020417;28;20061;-88
2022/06/10 12:51:02;;;;;;;7.97;1.85;;;25.30;70.00;;;;;;5020380;28;20081;-90
2022/06/10 12:54:11;;;;;;;3.47;1.52;;;25.10;71.00;;;;;;5034996;28;20069;-90
2022/06/10 12:56:48;;;;;;;8.32;1.58;;;25.10;71.40;;;;;;5031464;28;20033;-89
2022/06/10 12:59:34;;;;;;;;;;;;;;;;;;;;;
2022/06/10 13:02:10;;;;;;;;;;;;;;;;;;;;;
2022/06/10 13:04:45;;;;;;;5.18;1.52;;;25.80;70.10;;;;;;5030588;28;20033;-90
2022/06/10 13:07:50;;;;;;;;;;;;;;;;;;;;;
2022/06/10 13:10:37;;;;;;;6.30;1.30;;;25.90;69.00;;;;;;5037147;28;20057;-91
2022/06/10 13:13:31;;;;;;;4.80;1.60;;;26.20;67.40;;;;;;5028938;28;20037;-89
2022/06/10 13:16:45;;;;;;;;;;;;;;;;;;;;;
2022/06/10 13:19:41;;;;;;;4.00;1.27;;;26.40;66.70;;;;;;5013239;28;20061;-91
2022/06/10 13:22:43;;;;;;;;;;;;;;;;;;;;;
2022/06/10 13:25:24;;;;;;;5.82;1.40;;;26.40;64.70;;;;;;5023400;28;20039;-90
2022/06/10 13:28:03;;;;;;;;;;;;;;;;;;;;;
2022/06/10 13:30:35;;;;;;;5.03;1.33;;;26.50;64.40;;;;;;5030055;28;20082;-90
2022/06/10 13:33:04;;;;;;;4.57;1.05;;;26.50;63.60;;;;;;5030426;28;20038;-89
2022/06/10 13:35:37;;;;;;;4.68;1.30;;;26.50;63.70;;;;;;5031838;28;20056;-90
2022/06/10 13:38:24;;;;;;;4.78;1.35;;;26.70;64.50;;;;;;5033815;28;20060;-90
2022/06/10 13:44:00;;;;;;;5.97;1.67;;;26.40;63.70;;;;;;5022527;28;20041;-91
2022/06/10 13:57:57;;;;;;;5.15;1.40;;;25.40;64.90;;;;;;4883919;28;20033;-91
2022/06/10 14:04:44;;;;;;;4.70;1.40;;;24.60;66.30;;;;;;4909763;29;20021;-89
2022/06/10 14:07:53;;;;;;;3.95;1.20;;;24.70;67.90;;;;;;5008959;28;20034;-89
2022/06/10 14:11:13;;;;;;;3.83;1.10;;;24.90;66.00;;;;;;5031325;28;20217;-90
2022/06/10 14:14:18;;;;;;;5.82;1.40;;;25.30;65.80;;;;;;4978280;28;20044;-89
2022/06/10 14:16:53;;;;;;;3.10;1.00;;;25.50;67.50;;;;;;5035688;28;20049;-90
2022/06/10 14:22:46;;;;;;;6.05;1.70;;;25.80;66.80;;;;;;5033646;23;20057;-82
2022/06/10 14:25:15;;;;;;;5.60;1.60;;;26.00;67.00;;;;;;5003133;28;20454;-82
2022/06/10 14:27:47;;;;;;;6.28;1.42;;;26.00;66.50;;;;;;5001373;28;20061;-82
2022/06/10 14:30:18;;;;;;;3.70;1.35;;;25.90;65.20;;;;;;5003275;28;20034;-81
2022/06/10 14:32:51;;;;;;;8.05;2.05;;;25.70;64.90;;;;;;5023281;28;20089;-80
2022/06/10 14:35:33;;;;;;;3.75;1.10;;;25.50;65.60;;;;;;5008533;28;20030;-80
2022/06/10 14:38:23;;;;;;;3.92;1.38;;;25.30;65.50;;;;;;5004102;28;20025;-80
2022/06/10 14:40:55;;;;;;;6.80;1.98;;;25.10;65.90;;;;;;5006097;28;20058;-80
2022/06/10 14:43:23;;;;;;;4.57;1.48;;;25.00;66.70;;;;;;5023648;28;20061;-80
2022/06/10 14:46:02;;;;;;;4.43;1.48;;;25.00;66.70;;;;;;5011782;28;20247;-79
2022/06/10 14:48:31;;;;;;;4.28;1.30;;;25.20;66.10;;;;;;5008307;28;20093;-80
2022/06/10 14:51:15;;;;;;;4.47;1.20;;;25.30;66.30;;;;;;5005712;28;20034;-81
2022/06/10 14:53:49;;;;;;;6.15;1.65;;;25.50;65.50;;;;;;5002585;28;20026;-82
2022/06/10 14:56:40;;;;;;;6.15;1.25;;;25.70;66.80;;;;;;5011216;28;20021;-82
2022/06/10 14:59:21;;;;;;;5.50;1.70;;;25.90;64.90;;;;;;5004675;28;20029;-80
2022/06/10 15:01:53;;;;;;;4.72;1.30;;;26.00;64.70;;;;;;5018391;28;20070;-82
2022/06/10 15:04:23;;;;;;;5.13;1.73;;;25.90;64.70;;;;;;5018772;28;20044;-82
2022/06/10 15:06:55;;;;;;;4.90;1.27;;;27.10;65.80;;;;;;5007996;28;20026;-82
2022/06/10 15:09:58;;;;;;;7.85;2.03;;;25.80;64.10;;;;;;5012983;28;20044;-82
2022/06/10 15:12:30;;;;;;;7.03;1.55;;;25.80;64.10;;;;;;5026025;28;20046;-86
2022/06/10 15:14:56;;;;;;;6.13;1.58;;;25.70;64.50;;;;;;5031073;28;20054;-84
2022/06/10 15:17:28;;;;;;;5.45;1.70;;;25.80;64.30;;;;;;5032754;28;20022;-82
2022/06/10 15:20:10;;;;;;;6.50;1.30;;;25.90;64.10;;;;;;5019844;28;20111;-84
2022/06/10 15:22:39;;;;;;;4.13;1.45;;;26.00;63.60;;;;;;5024260;28;20041;-81
2022/06/10 15:25:27;;;;;;;4.78;1.75;;;26.00;64.40;;;;;;5005174;28;20048;-82
2022/06/10 15:27:54;;;;;;;7.40;1.77;;;26.00;65.20;;;;;;5015479;28;20030;-83
2022/06/10 15:30:25;;;;;;;4.53;1.70;;;26.20;64.10;;;;;;5021953;28;20034;-84
2022/06/10 15:32:51;;;;;;;4.45;1.35;;;26.20;63.90;;;;;;5030682;28;20061;-84
2022/06/10 15:41:08;;;;;;;5.72;1.75;;;26.20;64.30;;;;;;5014563;28;20036;-83
2022/06/10 15:43:34;;;;;;;6.40;1.63;;;26.20;64.20;;;;;;5019771;28;20026;-80
2022/06/10 15:46:00;;;;;;;3.88;1.15;;;26.00;64.30;;;;;;5022215;28;20045;-83
2022/06/10 15:48:26;;;;;;;4.47;1.50;;;25.90;64.90;;;;;;5021992;28;20500;-82
2022/06/10 15:50:54;;;;;;;4.75;1.90;;;25.60;64.90;;;;;;5020797;28;20034;-82
2022/06/10 15:53:26;;;;;;;5.57;1.48;;;25.30;65.30;;;;;;5021238;28;20268;-81
2022/06/10 15:58:39;;;;;;;6.40;2.22;;;25.30;65.90;;;;;;5019006;28;20048;-80
2022/06/10 16:01:06;;;;;;;5.30;1.50;;;25.60;65.60;;;;;;5013845;28;20422;-82
2022/06/10 16:03:32;;;;;;;7.18;2.00;;;25.70;65.60;;;;;;5017835;28;20083;-81
2022/06/10 16:05:58;;;;;;;5.22;1.60;;;25.80;64.90;;;;;;5019951;28;20040;-80
2022/06/10 16:08:24;;;;;;;4.35;1.17;;;25.80;64.80;;;;;;5017228;28;20053;-82
2022/06/10 16:10:53;;;;;;;4.60;1.48;;;25.70;64.80;;;;;;5020355;28;20029;-81
2022/06/10 16:13:23;;;;;;;6.07;1.20;;;25.70;65.00;;;;;;5018705;28;20093;-81
2022/06/10 16:15:58;;;;;;;5.03;1.50;;;25.80;64.90;;;;;;5017558;28;20033;-79
2022/06/10 16:18:30;;;;;;;5.82;1.42;;;25.80;64.50;;;;;;5012671;28;20104;-82
2022/06/10 16:20:58;;;;;;;5.78;1.40;;;25.70;64.70;;;;;;5020472;28;20033;-81
2022/06/10 16:23:28;;;;;;;5.15;1.40;;;25.80;65.10;;;;;;5016489;28;20034;-81
2022/06/10 16:25:58;;;;;;;6.10;1.40;;;25.70;64.80;;;;;;5017254;28;20030;-85
2022/06/10 16:28:28;;;;;;;;;;;26.00;64.50;;;;;;5034473;28;20058;-83
2022/06/10 16:30:56;;;;;;;4.30;1.42;;;26.30;64.40;;;;;;5016872;28;20089;-83
2022/06/10 16:33:27;;;;;;;5.03;1.20;;;26.50;63.70;;;;;;5017169;28;20028;-82
2022/06/10 16:35:55;;;;;;;6.65;1.50;;;26.50;63.70;;;;;;5017978;28;20022;-87
2022/06/10 16:38:27;;;;;;;4.88;1.67;;;26.50;63.80;;;;;;5017417;28;20030;-85
2022/06/10 16:40:54;;;;;;;4.18;1.20;;;26.70;63.40;;;;;;5016223;28;20036;-83
2022/06/10 16:43:29;;;;;;;4.47;1.30;;;26.60;63.10;;;;;;5019676;28;20045;-84
2022/06/10 16:45:55;;;;;;;5.15;1.60;;;26.60;63.80;;;;;;5028921;28;20037;-84
2022/06/10 16:48:32;;;;;;;4.28;1.15;;;26.70;63.90;;;;;;5019505;28;20034;-83
2022/06/10 16:51:01;;;;;;;8.93;1.85;;;26.70;63.50;;;;;;5018003;28;20030;-85
2022/06/10 16:53:30;;;;;;;5.70;1.70;;;26.50;63.70;;;;;;5020611;28;20565;-85
2022/06/10 16:55:59;;;;;;;6.18;2.38;;;26.60;64.50;;;;;;5016292;28;20058;-84
2022/06/10 16:58:37;;;;;;;5.00;1.60;;;26.50;64.30;;;;;;5014282;28;20031;-83
2022/06/10 17:01:06;;;;;;;5.60;1.67;;;26.40;64.50;;;;;;5015732;28;20030;-84
2022/06/10 17:04:04;;;;;;;3.53;1.30;;;26.50;65.00;;;;;;5016174;28;20076;-85
2022/06/10 17:06:33;;;;;;;4.68;1.20;;;26.50;63.70;;;;;;5019378;28;20025;-81
2022/06/10 17:09:05;;;;;;;6.10;1.70;;;26.40;63.50;;;;;;5015927;28;20102;-84
2022/06/10 17:11:50;;;;;;;5.93;2.33;;;26.60;65.20;;;;;;5037457;28;20525;-83
2022/06/10 17:14:33;;;;;;;4.72;1.45;;;26.70;64.70;;;;;;5013536;28;20018;-81
2022/06/10 17:17:00;;;;;;;5.03;1.90;;;26.60;63.90;;;;;;4996498;28;20487;-86
2022/06/10 17:19:40;;;;;;;5.32;1.65;;;26.30;65.20;;;;;;5017939;28;20068;-85
2022/06/10 17:22:19;;;;;;;4.38;1.58;;;26.00;64.30;;;;;;5036126;28;20270;-86
2022/06/10 17:25:19;;;;;;;7.40;1.60;;;25.70;65.00;;;;;;5021912;28;20042;-85
2022/06/10 17:27:49;;;;;;;7.18;1.90;;;25.50;64.70;;;;;;5022656;28;20163;-83
2022/06/10 17:30:23;;;;;;;;;;;25.60;65.50;;;;;;5014580;28;20046;-82
2022/06/10 17:32:58;;;;;;;6.63;2.08;;;25.50;65.50;;;;;;5012422;28;19910;-86
2022/06/10 17:35:27;;;;;;;6.15;1.90;;;25.50;65.70;;;;;;5030949;28;20033;-84
2022/06/10 17:37:56;;;;;;;7.90;2.33;;;25.30;65.50;;;;;;5019036;28;20030;-85
2022/06/10 17:40:22;;;;;;;5.13;1.80;;;25.20;66.90;;;;;;5016225;28;20064;-86
2022/06/10 17:42:49;;;;;;;4.57;1.60;;;25.10;66.80;;;;;;5016743;28;20390;-86
2022/06/10 17:45:24;;;;;;;4.80;1.92;;;24.90;66.80;;;;;;5014213;28;20046;-86
2022/06/10 17:47:50;;;;;;;5.07;1.77;;;24.80;67.70;;;;;;5008800;28;20034;-86
2022/06/10 17:50:21;;;;;;;5.18;2.10;;;24.70;68.00;;;;;;5008194;28;20129;-84
2022/06/10 17:52:47;;;;;;;4.75;1.73;;;24.70;67.90;;;;;;5008381;28;20034;-84
2022/06/10 17:55:14;;;;;;;7.72;2.03;;;24.70;68.90;;;;;;5011929;28;20022;-85
2022/06/10 17:58:03;;;;;;;6.60;1.40;;;24.60;68.60;;;;;;5030418;28;20045;-87
2022/06/10 18:00:48;;;;;;;5.20;1.75;;;25.00;68.70;;;;;;5006066;28;20557;-85
2022/06/10 18:03:25;;;;;;;6.47;2.35;;;24.50;68.70;;;;;;5014060;28;21237;-83
2022/06/10 18:06:09;;;;;;;6.65;2.65;;;24.30;69.40;;;;;;5017132;28;20053;-87
2022/06/10 18:09:15;;;;;;;5.28;1.92;;;24.30;69.40;;;;;;5016603;28;20037;-85
2022/06/10 18:12:00;;;;;;;8.32;2.83;;;25.40;70.20;;;;;;5015887;28;20074;-86
2022/06/10 18:14:58;;;;;;;7.85;2.03;;;23.20;68.70;;;;;;5027828;28;20037;-86
2022/06/10 18:18:00;;;;;;;7.32;2.10;;;24.00;70.00;;;;;;5012916;28;20093;-84
2022/06/10 18:20:28;;;;;;;6.93;1.90;;;23.90;69.90;;;;;;5015677;28;20027;-85
2022/06/10 18:23:07;;;;;;;6.82;1.83;;;23.80;70.40;;;;;;5014653;28;20092;-87
2022/06/10 18:25:48;;;;;;;7.60;2.40;;;23.90;69.80;;;;;;5016344;28;20045;-87
2022/06/10 18:28:35;;;;;;;;;;;;;;;;;;;;;
2022/06/10 18:31:07;;;;;;;7.35;2.45;;;23.70;70.90;;;;;;5011963;28;20034;-84
2022/06/10 18:34:30;;;;;;;;;;;;;;;;;;;;;
2022/06/10 18:40:59;;;;;;;12.25;4.97;;;23.70;72.20;;;;;;4998983;28;20026;-86
2022/06/10 18:47:39;;;;;;;5.97;1.80;;;23.70;74.20;;;;;;5003084;28;20097;-86
2022/06/10 18:51:22;;;;;;;;;;;;;;;;;;;;;
2022/06/10 18:54:08;;;;;;;5.72;1.85;;;23.50;75.70;;;;;;4992008;28;20107;-84
2022/06/10 18:56:44;;;;;;;6.57;2.28;;;23.60;77.60;;;;;;5019250;28;20030;-84
2022/06/10 18:59:31;;;;;;;4.60;2.13;;;22.70;77.90;;;;;;5021855;28;20026;-88
2022/06/10 19:05:52;;;;;;;9.43;2.90;;;22.70;78.30;;;;;;5002032;28;20041;-86
2022/06/10 19:37:53;;;;;;;6.10;2.10;;;22.10;84.20;;;;;;5036107;28;20053;-91
2022/06/10 19:40:34;;;;;;;6.35;2.38;;;22.00;85.00;;;;;;5031216;28;20051;-90
2022/06/10 19:43:03;;;;;;;6.47;2.10;;;21.90;85.60;;;;;;5034958;28;20033;-90
2022/06/10 19:45:32;;;;;;;5.10;1.92;;;21.80;86.20;;;;;;5011950;28;20228;-89
2022/06/10 19:48:20;;;;;;;7.82;2.55;;;21.70;86.60;;;;;;5041307;28;20063;-89
2022/06/10 19:50:53;;;;;;;6.70;2.10;;;21.50;87.00;;;;;;5047812;28;20044;-91
2022/06/10 20:13:58;;;;;;;6.70;3.17;;;21.00;90.60;;;;;;5022408;28;20049;-86
2022/06/10 20:16:47;;;;;;;6.68;3.80;;;21.10;91.00;;;;;;5022614;28;20033;-85
2022/06/10 20:19:29;;;;;;;6.78;3.10;;;20.70;91.00;;;;;;5030058;28;20041;-86
2022/06/10 20:22:03;;;;;;;6.95;2.97;;;20.70;91.20;;;;;;5015107;28;20068;-83
2022/06/10 20:24:34;;;;;;;8.55;3.63;;;20.70;91.70;;;;;;5020384;28;20068;-85
2022/06/10 20:27:00;;;;;;;5.35;2.80;;;19.80;91.70;;;;;;5019211;28;20100;-84
2022/06/10 20:29:27;;;;;;;6.05;2.78;;;20.90;92.10;;;;;;5017183;28;20041;-85
2022/06/10 20:31:57;;;;;;;8.07;2.90;;;21.90;92.50;;;;;;5023462;28;20521;-82
2022/06/10 20:34:34;;;;;;;6.43;2.95;;;20.50;92.50;;;;;;5022247;28;20057;-85
2022/06/10 20:37:04;;;;;;;5.35;2.65;;;20.40;92.40;;;;;;5009633;28;20041;-83
2022/06/10 20:40:24;;;;;;;8.18;3.20;;;20.30;93.00;;;;;;5015939;28;20053;-85
2022/06/10 20:43:44;;;;;;;6.70;3.03;;;20.40;93.30;;;;;;5017750;28;20046;-84
2022/06/10 20:46:25;;;;;;;4.22;2.17;;;20.30;93.30;;;;;;5021785;28;20033;-86
2022/06/10 20:49:00;;;;;;;7.72;2.60;;;20.20;93.50;;;;;;5019585;28;20026;-82
2022/06/10 20:51:50;;;;;;;7.13;2.75;;;20.30;93.90;;;;;;5012467;28;20038;-85
2022/06/10 20:54:18;;;;;;;5.30;2.70;;;20.10;93.90;;;;;;5016074;28;20101;-86
2022/06/10 20:56:53;;;;;;;6.22;2.60;;;20.00;94.10;;;;;;5020585;28;20022;-87
2022/06/10 20:59:44;;;;;;;8.20;2.53;;;18.80;94.30;;;;;;5019096;28;20033;-86
2022/06/10 21:02:18;;;;;;;;;;;19.80;94.70;;;;;;5023277;28;20038;-85
2022/06/10 21:07:46;;;;;;;8.10;3.10;;;19.70;95.40;;;;;;5023847;28;20037;-86
2022/06/10 21:10:29;;;;;;;9.18;2.90;;;21.00;95.70;;;;;;5017234;28;20081;-84
2022/06/10 21:12:58;;;;;;;10.85;2.92;;;19.50;95.90;;;;;;5006033;28;20041;-87
2022/06/10 21:15:28;;;;;;;5.88;2.75;;;19.50;96.00;;;;;;5015550;28;20054;-83
2022/06/10 21:18:02;;;;;;;8.05;3.13;;;19.40;96.40;;;;;;5026273;28;20065;-84
2022/06/10 21:20:39;;;;;;;8.38;2.90;;;19.30;96.70;;;;;;5025252;28;20161;-86
2022/06/10 21:23:06;;;;;;;7.90;3.35;;;19.30;96.90;;;;;;5024916;28;20034;-85
2022/06/10 21:25:35;;;;;;;8.02;3.60;;;19.20;97.30;;;;;;5028166;28;20028;-85
2022/06/10 21:28:04;;;;;;;5.55;3.90;;;19.20;97.70;;;;;;5030799;28;20056;-87
2022/06/10 21:30:33;;;;;;;9.30;3.97;;;19.20;97.90;;;;;;5030529;28;20026;-86
2022/06/10 21:33:05;;;;;;;7.97;3.55;;;19.10;98.30;;;;;;5015589;28;20495;-87
2022/06/10 21:35:35;;;;;;;9.60;4.53;;;19.10;98.70;;;;;;5007622;28;20030;-85
2022/06/10 21:38:05;;;;;;;7.50;3.72;;;19.00;98.90;;;;;;5007752;28;20038;-84
2022/06/10 21:40:34;;;;;;;6.95;3.70;;;19.00;99.40;;;;;;5009406;28;20030;-84
2022/06/10 21:45:46;;;;;;;6.93;3.80;;;18.90;99.90;;;;;;5008540;28;20057;-86
2022/06/10 21:48:40;;;;;;;7.93;4.53;;;18.80;99.90;;;;;;5007741;28;20025;-85
2022/06/10 21:51:09;;;;;;;8.88;4.25;;;18.50;99.90;;;;;;5003258;28;20121;-82
2022/06/10 21:53:40;;;;;;;8.85;3.60;;;18.70;99.90;;;;;;5007782;28;20525;-87
2022/06/10 21:56:28;;;;;;;8.73;3.58;;;18.60;99.90;;;;;;5007134;28;20034;-85
2022/06/10 21:58:58;;;;;;;8.50;4.32;;;18.60;99.90;;;;;;5006725;28;20031;-84
2022/06/10 22:01:32;;;;;;;10.13;3.30;;;18.50;99.90;;;;;;5007586;28;20041;-86
2022/06/10 22:04:16;;;;;;;8.20;3.50;;;18.50;99.90;;;;;;5009300;28;20027;-86
2022/06/10 22:06:43;;;;;;;8.15;3.78;;;18.40;99.90;;;;;;5009354;28;20026;-86
2022/06/10 22:20:18;;;;;;;5.68;2.92;;;18.20;99.90;;;;;;4222517;23;20050;-83
2022/06/10 22:23:14;;;;;;;5.75;2.67;;;18.00;99.90;;;;;;5018953;28;20022;-83
2022/06/10 22:25:50;;;;;;;5.32;2.60;;;17.90;99.90;;;;;;5032355;28;20053;-83
2022/06/10 22:29:12;;;;;;;7.82;2.83;;;17.80;99.90;;;;;;5040830;28;20096;-84
2022/06/10 22:47:52;;;;;;;11.95;4.85;;;17.60;99.90;;;;;;4057449;22;20057;-83
2022/06/10 22:51:12;;;;;;;10.75;3.80;;;17.50;99.90;;;;;;5039216;28;20025;-84
2022/06/10 22:54:55;;;;;;;9.35;3.67;;;17.50;99.90;;;;;;5018404;28;20034;-84
2022/06/10 22:57:27;;;;;;;8.63;3.17;;;17.50;99.90;;;;;;5203013;23;20901;-80
2022/06/10 23:12:54;;;;;;;7.63;4.10;;;17.20;99.90;;;;;;5318456;23;20036;-83
2022/06/10 23:28:36;;;;;;;9.45;3.30;;;16.90;99.90;;;;;;3159597;22;20041;-83
2022/06/10 23:31:11;;;;;;;7.75;3.20;;;16.80;99.90;;;;;;5073311;28;20048;-82
2022/06/10 23:33:37;;;;;;;6.18;3.33;;;16.90;99.90;;;;;;5051776;28;20014;-82
2022/06/10 23:36:28;;;;;;;7.95;3.30;;;16.80;99.90;;;;;;5049855;28;20053;-82
2022/06/10 23:38:55;;;;;;;7.63;3.33;;;16.80;99.90;;;;;;5043680;28;20073;-83
2022/06/10 23:41:24;;;;;;;5.32;2.88;;;16.70;99.90;;;;;;5055294;28;20025;-85
2022/06/10 23:43:55;;;;;;;6.68;3.25;;;15.80;99.90;;;;;;5769984;23;20097;-81
2022/06/10 23:53:16;;;;;;;8.73;3.95;;;16.70;99.90;;;;;;5286937;23;20041;-83
